Time;durP1;ratioP1;P1;durP2;ratioP2;P2;SDS_P1;SDS_P2;PMS_P1;PMS_P2;Temp;Humidity;BMP_temperature;BMP_pressure;BME280_temperature;BME280_humidity;BME280_pressure;Samples;Min_cycle;Max_cycle;Signal;HPM_P1;HPM_P2
2022/12/07 00:01:17;;;;;;;;;;;24.30;99.90;;;;;;5055119;28;20256;-67
2022/12/07 00:03:44;;;;;;;;;;;24.20;99.90;;;;;;5040276;28;19913;-66
2022/12/07 00:06:12;;;;;;;;;;;24.20;99.90;;;;;;5051650;28;19909;-69
2022/12/07 00:08:39;;;;;;;;;;;24.00;99.90;;;;;;5053932;28;19951;-67
2022/12/07 00:11:10;;;;;;;;;;;23.70;99.90;;;;;;5054693;28;19920;-65
2022/12/07 00:13:37;;;;;;;;;;;23.60;99.90;;;;;;5054021;28;19924;-68
2022/12/07 00:16:06;;;;;;;;;;;23.40;99.90;;;;;;5054900;28;20367;-64
2022/12/07 00:18:32;;;;;;;;;;;23.40;99.90;;;;;;5054016;28;20418;-66
2022/12/07 00:21:00;;;;;;;;;;;23.60;99.90;;;;;;5054905;28;19916;-65
2022/12/07 00:23:27;;;;;;;;;;;23.60;99.90;;;;;;5053306;28;19912;-65
2022/12/07 00:25:54;;;;;;;;;;;23.70;99.90;;;;;;5054017;28;19913;-67
2022/12/07 00:28:20;;;;;;;;;;;23.90;99.90;;;;;;5054615;28;20367;-64
2022/12/07 00:30:47;;;;;;;;;;;24.00;99.90;;;;;;5052352;28;19913;-65
2022/12/07 00:33:14;;;;;;;;;;;23.90;99.90;;;;;;5054385;28;20367;-64
2022/12/07 00:35:40;;;;;;;;;;;24.00;99.90;;;;;;5053882;28;19935;-64
2022/12/07 00:38:07;;;;;;;;;;;24.00;99.90;;;;;;5052846;28;19917;-64
2022/12/07 00:40:34;;;;;;;;;;;24.10;99.90;;;;;;5054471;28;20007;-65
2022/12/07 00:43:01;;;;;;;;;;;24.10;99.90;;;;;;5053504;28;20372;-64
2022/12/07 00:45:27;;;;;;;;;;;24.30;99.90;;;;;;5054438;28;19978;-64
2022/12/07 00:47:54;;;;;;;;;;;24.60;99.90;;;;;;5053531;28;20003;-64
2022/12/07 00:50:21;;;;;;;;;;;25.10;99.90;;;;;;5054312;28;19999;-65
2022/12/07 00:52:47;;;;;;;;;;;25.60;99.90;;;;;;5052057;28;19971;-65
2022/12/07 00:55:14;;;;;;;;;;;25.80;99.90;;;;;;5054144;28;19909;-66
2022/12/07 00:57:41;;;;;;;;;;;25.80;99.90;;;;;;5053175;28;20368;-65
2022/12/07 01:00:08;;;;;;;;;;;25.80;99.90;;;;;;5054098;28;20291;-65
2022/12/07 01:02:34;;;;;;;;;;;25.60;99.90;;;;;;5053175;28;20271;-64
2022/12/07 01:05:01;;;;;;;;;;;25.40;99.90;;;;;;5052716;28;19920;-65
2022/12/07 01:07:27;;;;;;;;;;;25.10;99.90;;;;;;5053062;28;19944;-64
2022/12/07 01:09:54;;;;;;;;;;;24.80;99.90;;;;;;5053824;28;19915;-64
2022/12/07 01:12:26;;;;;;;;;;;24.60;99.90;;;;;;5052684;28;19920;-65
2022/12/07 01:14:53;;;;;;;;;;;24.60;99.90;;;;;;5052351;28;19913;-67
2022/12/07 01:17:20;;;;;;;;;;;24.40;99.90;;;;;;5052734;28;19955;-64
2022/12/07 01:19:46;;;;;;;;;;;24.40;99.90;;;;;;5052862;28;19912;-66
2022/12/07 01:22:13;;;;;;;;;;;24.30;99.90;;;;;;5053666;28;19913;-64
2022/12/07 01:24:40;;;;;;;;;;;24.20;99.90;;;;;;5052808;28;19939;-64
2022/12/07 01:27:06;;;;;;;;;;;24.00;99.90;;;;;;5053464;28;20377;-65
2022/12/07 01:29:33;;;;;;;;;;;24.00;99.90;;;;;;5052851;28;20000;-64
2022/12/07 01:32:00;;;;;;;;;;;23.90;99.90;;;;;;5052734;28;19916;-65
2022/12/07 01:34:26;;;;;;;;;;;23.90;99.90;;;;;;5053589;28;19912;-65
2022/12/07 01:36:53;;;;;;;;;;;23.90;99.90;;;;;;5051701;28;19966;-64
2022/12/07 01:39:20;;;;;;;;;;;23.90;99.90;;;;;;5053239;28;20004;-65
2022/12/07 01:41:47;;;;;;;;;;;23.90;99.90;;;;;;5052625;28;19916;-64
2022/12/07 01:44:19;;;;;;;;;;;23.80;99.90;;;;;;5053485;28;19908;-64
2022/12/07 01:46:47;;;;;;;;;;;23.70;99.90;;;;;;5052578;28;19967;-64
2022/12/07 01:49:19;;;;;;;;;;;23.70;99.90;;;;;;5053294;28;19909;-65
2022/12/07 01:51:46;;;;;;;;;;;23.70;99.90;;;;;;5052570;28;19928;-66
2022/12/07 01:54:15;;;;;;;;;;;23.70;99.90;;;;;;5053345;28;19912;-65
2022/12/07 01:56:43;;;;;;;;;;;23.80;99.90;;;;;;5051658;28;19943;-65
2022/12/07 01:59:10;;;;;;;;;;;23.80;99.90;;;;;;5053603;28;19916;-64
2022/12/07 02:01:37;;;;;;;;;;;23.80;99.90;;;;;;5052733;28;19913;-65
2022/12/07 02:04:04;;;;;;;;;;;23.70;99.90;;;;;;5053712;28;19909;-65
2022/12/07 02:06:30;;;;;;;;;;;23.70;99.90;;;;;;5053091;28;19912;-65
2022/12/07 02:08:57;;;;;;;;;;;23.70;99.90;;;;;;5053024;28;20359;-65
2022/12/07 02:11:24;;;;;;;;;;;23.70;99.90;;;;;;5054852;28;19909;-65
2022/12/07 02:13:51;;;;;;;;;;;23.60;99.90;;;;;;5055646;28;19917;-66
2022/12/07 02:16:24;;;;;;;;;;;23.60;99.90;;;;;;5059282;28;19916;-65
2022/12/07 02:19:09;;;;;;;;;;;23.60;99.90;;;;;;5055822;28;19951;-68
2022/12/07 02:21:47;;;;;;;;;;;23.60;99.90;;;;;;5054275;28;19951;-69
2022/12/07 02:24:37;;;;;;;;;;;23.60;99.90;;;;;;5052698;28;20348;-68
2022/12/07 02:27:28;;;;;;;;;;;23.60;99.90;;;;;;5041642;28;19951;-66
2022/12/07 02:29:55;;;;;;;;;;;23.50;99.90;;;;;;5053259;28;20299;-69
2022/12/07 02:32:41;;;;;;;;;;;23.50;99.90;;;;;;5054262;28;20335;-66
2022/12/07 02:35:11;;;;;;;;;;;23.50;99.90;;;;;;5053029;28;20275;-69
2022/12/07 02:38:13;;;;;;;;;;;23.50;99.90;;;;;;5052674;28;19956;-68
2022/12/07 02:41:02;;;;;;;;;;;23.50;99.90;;;;;;4982278;28;19956;-66
2022/12/07 02:43:31;;;;;;;;;;;23.50;99.90;;;;;;5044134;28;19920;-69
2022/12/07 02:46:06;;;;;;;;;;;23.50;99.90;;;;;;5052992;28;19978;-70
2022/12/07 02:48:34;;;;;;;;;;;23.50;99.90;;;;;;5051891;28;20359;-70
2022/12/07 02:51:00;;;;;;;;;;;23.50;99.90;;;;;;5052572;28;19963;-67
2022/12/07 02:53:35;;;;;;;;;;;23.60;99.90;;;;;;5053119;28;19959;-69
2022/12/07 02:56:19;;;;;;;;;;;23.50;99.90;;;;;;5055274;28;19913;-68
2022/12/07 02:58:55;;;;;;;;;;;23.60;99.90;;;;;;5036282;28;19931;-67
2022/12/07 03:01:40;;;;;;;;;;;23.60;99.90;;;;;;5053559;28;19960;-66
2022/12/07 03:04:26;;;;;;;;;;;23.70;99.90;;;;;;5056256;28;19952;-65
2022/12/07 03:07:16;;;;;;;;;;;23.70;99.90;;;;;;5054790;28;20043;-66
2022/12/07 03:09:43;;;;;;;;;;;23.70;99.90;;;;;;5013372;28;19919;-67
2022/12/07 03:12:12;;;;;;;;;;;23.70;99.90;;;;;;5055800;28;19913;-67
2022/12/07 03:14:45;;;;;;;;;;;23.70;99.90;;;;;;5055049;28;19909;-67
2022/12/07 03:17:32;;;;;;;;;;;23.70;99.90;;;;;;5056149;28;19913;-70
2022/12/07 03:20:01;;;;;;;;;;;23.70;99.90;;;;;;5055190;28;20003;-66
2022/12/07 03:22:29;;;;;;;;;;;23.70;99.90;;;;;;5055652;28;19912;-68
2022/12/07 03:25:00;;;;;;;;;;;23.70;99.90;;;;;;5054646;28;19951;-69
2022/12/07 03:27:31;;;;;;;;;;;23.70;99.90;;;;;;5055178;28;19913;-69
2022/12/07 03:30:09;;;;;;;;;;;23.70;99.90;;;;;;5055778;28;19909;-68
2022/12/07 03:32:44;;;;;;;;;;;23.80;99.90;;;;;;5054953;28;19943;-70
2022/12/07 03:35:31;;;;;;;;;;;23.90;99.90;;;;;;5055649;28;19919;-70
2022/12/07 03:38:05;;;;;;;;;;;23.90;99.90;;;;;;5053784;28;19909;-70
2022/12/07 03:40:43;;;;;;;;;;;23.90;99.90;;;;;;5055695;28;19913;-70
2022/12/07 03:43:10;;;;;;;;;;;23.90;99.90;;;;;;5054988;28;19909;-68
2022/12/07 03:45:41;;;;;;;;;;;23.90;99.90;;;;;;5055617;28;19952;-69
2022/12/07 03:48:28;;;;;;;;;;;23.80;99.90;;;;;;5054713;28;19995;-68
2022/12/07 03:50:58;;;;;;;;;;;23.80;99.90;;;;;;5040317;28;19955;-65
2022/12/07 03:53:50;;;;;;;;;;;23.80;99.90;;;;;;5055203;28;19921;-69
2022/12/07 03:56:17;;;;;;;;;;;23.90;99.90;;;;;;5051431;28;19928;-69
2022/12/07 03:58:44;;;;;;;;;;;23.90;99.90;;;;;;5055273;28;19909;-68
2022/12/07 04:01:11;;;;;;;;;;;23.90;99.90;;;;;;5054504;28;19913;-68
2022/12/07 04:03:38;;;;;;;;;;;23.90;99.90;;;;;;5054675;28;19908;-67
2022/12/07 04:06:05;;;;;;;;;;;23.90;99.90;;;;;;5053993;28;19956;-68
2022/12/07 04:08:32;;;;;;;;;;;24.00;99.90;;;;;;5053844;28;19920;-68
2022/12/07 04:10:58;;;;;;;;;;;24.00;99.90;;;;;;5054763;28;19909;-69
2022/12/07 04:13:25;;;;;;;;;;;24.00;99.90;;;;;;5053979;28;20383;-67
2022/12/07 04:15:52;;;;;;;;;;;23.90;99.90;;;;;;5054982;28;19916;-66
2022/12/07 04:18:18;;;;;;;;;;;23.80;99.90;;;;;;5053131;28;19917;-68
2022/12/07 04:20:46;;;;;;;;;;;23.70;99.90;;;;;;5054364;28;19909;-66
2022/12/07 04:23:13;;;;;;;;;;;23.70;99.90;;;;;;5054584;28;20019;-69
2022/12/07 04:25:40;;;;;;;;;;;23.60;99.90;;;;;;5052912;28;19923;-69
2022/12/07 04:28:07;;;;;;;;;;;23.60;99.90;;;;;;5054418;28;20000;-70
2022/12/07 04:30:33;;;;;;;;;;;23.60;99.90;;;;;;5053634;28;19924;-67
2022/12/07 04:33:00;;;;;;;;;;;23.70;99.90;;;;;;5052382;28;19947;-68
2022/12/07 04:35:27;;;;;;;;;;;23.90;96.80;;;;;;5041773;28;19957;-69
2022/12/07 04:37:53;;;;;;;;;;;24.20;94.70;;;;;;5041237;28;19916;-69
2022/12/07 04:40:20;;;;;;;;;;;24.50;92.90;;;;;;5054606;28;19935;-69
2022/12/07 04:42:47;;;;;;;;;;;24.50;92.80;;;;;;5053705;28;20291;-70
2022/12/07 04:45:13;;;;;;;;;;;24.40;93.20;;;;;;5052701;28;19916;-70
2022/12/07 04:47:40;;;;;;;;;;;24.70;91.10;;;;;;5053459;28;19913;-68
2022/12/07 04:50:07;;;;;;;;;;;24.70;91.00;;;;;;5054405;28;19916;-69
2022/12/07 04:52:33;;;;;;;;;;;24.60;90.20;;;;;;5053172;28;19921;-70
2022/12/07 04:55:00;;;;;;;;;;;24.70;90.50;;;;;;5054026;28;19940;-69
2022/12/07 04:57:27;;;;;;;;;;;24.80;88.20;;;;;;5051813;28;19921;-67
2022/12/07 04:59:54;;;;;;;;;;;24.80;90.70;;;;;;5047997;28;20009;-67
2022/12/07 05:02:20;;;;;;;;;;;24.80;89.10;;;;;;5034062;28;19916;-69
2022/12/07 05:04:47;;;;;;;;;;;24.80;86.20;;;;;;5037346;28;19913;-69
2022/12/07 05:07:14;;;;;;;;;;;25.00;87.50;;;;;;5052846;28;19954;-66
2022/12/07 05:09:40;;;;;;;;;;;25.00;86.90;;;;;;5053968;28;19909;-69
2022/12/07 05:12:07;;;;;;;;;;;24.90;89.90;;;;;;5052858;28;20040;-68
2022/12/07 05:14:33;;;;;;;;;;;24.80;85.00;;;;;;5053706;28;19913;-68
2022/12/07 05:17:00;;;;;;;;;;;24.90;83.80;;;;;;5052121;28;19912;-69
2022/12/07 05:19:27;;;;;;;;;;;24.90;86.30;;;;;;5053806;28;19908;-67
2022/12/07 05:21:54;;;;;;;;;;;24.80;88.90;;;;;;5052782;28;19923;-67
2022/12/07 05:24:20;;;;;;;;;;;24.60;86.10;;;;;;5053630;28;19909;-68
2022/12/07 05:26:47;;;;;;;;;;;24.80;82.50;;;;;;5052367;28;19944;-70
2022/12/07 05:29:15;;;;;;;;;;;25.00;83.10;;;;;;5053006;28;19942;-69
2022/12/07 05:31:41;;;;;;;;;;;25.00;82.60;;;;;;5053457;28;19913;-68
2022/12/07 05:34:09;;;;;;;;;;;24.90;83.30;;;;;;5052448;28;20272;-66
2022/12/07 05:36:35;;;;;;;;;;;25.00;81.70;;;;;;5052355;28;19913;-66
2022/12/07 05:39:02;;;;;;;;;;;25.00;82.50;;;;;;5050147;28;19919;-68
2022/12/07 05:44:14;;;;;;;;;;;24.60;85.00;;;;;;5045216;28;19935;-69
2022/12/07 05:46:41;;;;;;;;;;;24.50;84.70;;;;;;5039720;28;19927;-69
2022/12/07 05:49:08;;;;;;;;;;;24.50;85.40;;;;;;5044415;28;19913;-69
2022/12/07 05:51:34;;;;;;;;;;;24.40;85.60;;;;;;5046234;28;19924;-67
2022/12/07 05:54:01;;;;;;;;;;;24.30;87.80;;;;;;5050075;28;19919;-66
2022/12/07 05:56:31;;;;;;;;;;;24.20;87.80;;;;;;5049781;28;19920;-67
2022/12/07 06:01:42;;;;;;;;;;;24.20;85.30;;;;;;5048740;28;20055;-68
2022/12/07 06:04:09;;;;;;;;;;;24.20;88.30;;;;;;5049569;28;19940;-69
2022/12/07 06:06:36;;;;;;;;;;;24.10;88.00;;;;;;5048805;28;19912;-68
2022/12/07 06:09:03;;;;;;;;;;;24.00;90.20;;;;;;5050463;28;19909;-69
2022/12/07 06:14:14;;;;;;;;;;;23.90;91.10;;;;;;5051328;28;19924;-66
2022/12/07 06:16:41;;;;;;;;;;;23.80;92.10;;;;;;5049727;28;19951;-70
2022/12/07 06:19:08;;;;;;;;;;;23.80;91.90;;;;;;5050173;28;20412;-68
2022/12/07 06:21:37;;;;;;;;;;;23.80;92.50;;;;;;5049936;28;20002;-66
2022/12/07 06:24:04;;;;;;;;;;;23.70;92.30;;;;;;5050841;28;20244;-65
2022/12/07 06:26:30;;;;;;;;;;;23.70;92.50;;;;;;5048885;28;19913;-65
2022/12/07 06:28:57;;;;;;;;;;;23.70;92.50;;;;;;5054190;28;19915;-65
2022/12/07 06:31:24;;;;;;;;;;;23.80;92.30;;;;;;5053709;28;19919;-64
2022/12/07 06:33:51;;;;;;;;;;;23.70;93.30;;;;;;5054325;28;20433;-65
2022/12/07 06:36:17;;;;;;;;;;;23.70;93.00;;;;;;5053384;28;19955;-64
2022/12/07 06:38:44;;;;;;;;;;;23.70;93.30;;;;;;5053223;28;20298;-66
2022/12/07 06:41:11;;;;;;;;;;;23.60;93.90;;;;;;5053719;28;19916;-65
2022/12/07 06:43:38;;;;;;;;;;;23.50;93.80;;;;;;5038248;28;19913;-65
2022/12/07 06:46:04;;;;;;;;;;;23.50;94.20;;;;;;5054124;28;20325;-65
2022/12/07 06:48:31;;;;;;;;;;;23.40;93.90;;;;;;5053514;28;19921;-65
2022/12/07 06:50:58;;;;;;;;;;;23.40;93.70;;;;;;5054081;28;19916;-66
2022/12/07 06:53:24;;;;;;;;;;;23.50;93.70;;;;;;5053512;28;20334;-66
2022/12/07 06:55:51;;;;;;;;;;;23.60;93.50;;;;;;5053356;28;19916;-64
2022/12/07 06:58:18;;;;;;;;;;;23.60;94.00;;;;;;5054122;28;19924;-65
2022/12/07 07:00:45;;;;;;;;;;;23.50;94.20;;;;;;5053395;28;19913;-65
2022/12/07 07:03:12;;;;;;;;;;;23.50;94.00;;;;;;5054242;28;19913;-65
2022/12/07 07:05:39;;;;;;;;;;;23.40;94.80;;;;;;5053259;28;19913;-65
2022/12/07 07:08:05;;;;;;;;;;;23.40;95.10;;;;;;5052521;28;20379;-66
2022/12/07 07:10:36;;;;;;;;;;;23.40;94.30;;;;;;5052632;28;20209;-65
2022/12/07 07:13:03;;;;;;;;;;;23.30;95.20;;;;;;5053357;28;20522;-64
2022/12/07 07:15:30;;;;;;;;;;;23.30;95.30;;;;;;5048819;28;19916;-65
2022/12/07 07:17:57;;;;;;;;;;;23.30;94.50;;;;;;5047777;28;19912;-65
2022/12/07 07:20:23;;;;;;;;;;;23.30;94.30;;;;;;5046896;28;19924;-65
2022/12/07 07:22:50;;;;;;;;;;;23.40;95.30;;;;;;5046110;28;19962;-65
2022/12/07 07:25:17;;;;;;;;;;;23.30;95.30;;;;;;5047106;28;19913;-65
2022/12/07 07:27:43;;;;;;;;;;;23.20;95.30;;;;;;5046289;28;19920;-65
2022/12/07 07:30:11;;;;;;;;;;;23.30;95.20;;;;;;5046773;28;19919;-65
2022/12/07 07:32:37;;;;;;;;;;;23.30;95.10;;;;;;5029247;28;19921;-66
2022/12/07 07:35:04;;;;;;;;;;;23.30;95.40;;;;;;5029364;28;20405;-67
2022/12/07 07:37:31;;;;;;;;;;;23.20;95.20;;;;;;5034397;28;20338;-65
2022/12/07 07:39:58;;;;;;;;;;;23.20;95.50;;;;;;5046104;28;19948;-66
2022/12/07 07:42:24;;;;;;;;;;;23.10;96.00;;;;;;5046125;28;19967;-65
2022/12/07 07:44:51;;;;;;;;;;;23.10;95.90;;;;;;5046817;28;20379;-66
2022/12/07 07:47:18;;;;;;;;;;;23.10;95.90;;;;;;5046026;28;20098;-64
2022/12/07 07:49:44;;;;;;;;;;;23.20;95.60;;;;;;5047033;28;19996;-65
2022/12/07 07:52:11;;;;;;;;;;;23.20;96.20;;;;;;5045463;28;19931;-65
2022/12/07 07:54:38;;;;;;;;;;;23.20;96.80;;;;;;5046827;28;20335;-65
2022/12/07 07:57:05;;;;;;;;;;;23.30;95.70;;;;;;5045497;28;20034;-64
2022/12/07 07:59:31;;;;;;;;;;;23.20;96.90;;;;;;5046750;28;19982;-65
2022/12/07 08:01:58;;;;;;;;;;;23.20;96.40;;;;;;5045775;28;19948;-65
2022/12/07 08:04:25;;;;;;;;;;;23.10;96.40;;;;;;5046690;28;20478;-68
2022/12/07 08:06:52;;;;;;;;;;;23.10;96.50;;;;;;5044544;28;19913;-66
2022/12/07 08:09:19;;;;;;;;;;;23.00;97.00;;;;;;5045407;28;19924;-66
2022/12/07 08:11:45;;;;;;;;;;;23.00;96.80;;;;;;5046023;28;19916;-68
2022/12/07 08:14:12;;;;;;;;;;;23.00;96.30;;;;;;5045561;28;19924;-65
2022/12/07 08:16:39;;;;;;;;;;;23.10;95.90;;;;;;5045946;28;20633;-70
2022/12/07 08:19:07;;;;;;;;;;;23.20;96.30;;;;;;5045605;28;20003;-66
2022/12/07 08:21:34;;;;;;;;;;;23.20;96.80;;;;;;5048473;28;19917;-65
2022/12/07 08:24:02;;;;;;;;;;;23.20;95.90;;;;;;5053680;28;19916;-68
2022/12/07 08:26:29;;;;;;;;;;;23.30;95.70;;;;;;5053759;28;20064;-69
2022/12/07 08:28:56;;;;;;;;;;;23.40;96.40;;;;;;5051695;28;19909;-69
2022/12/07 08:31:22;;;;;;;;;;;23.30;96.40;;;;;;5053679;28;20256;-69
2022/12/07 08:33:49;;;;;;;;;;;23.20;96.60;;;;;;5052319;28;19917;-69
2022/12/07 08:36:17;;;;;;;;;;;23.20;96.10;;;;;;5052967;28;19919;-69
2022/12/07 08:38:44;;;;;;;;;;;23.20;96.30;;;;;;5054420;28;19913;-70
2022/12/07 08:41:10;;;;;;;;;;;23.20;96.00;;;;;;5053473;28;19917;-69
2022/12/07 08:43:37;;;;;;;;;;;23.20;97.50;;;;;;5052504;28;19948;-69
2022/12/07 08:46:06;;;;;;;;;;;23.10;96.40;;;;;;5051921;28;20462;-68
2022/12/07 08:48:34;;;;;;;;;;;23.00;97.00;;;;;;5051779;28;19919;-70
2022/12/07 08:51:02;;;;;;;;;;;22.90;97.10;;;;;;5050787;28;19913;-69
2022/12/07 08:53:29;;;;;;;;;;;22.90;97.20;;;;;;5051130;28;19923;-68
2022/12/07 08:55:58;;;;;;;;;;;22.80;97.50;;;;;;5052593;28;19912;-69
2022/12/07 08:58:25;;;;;;;;;;;22.80;97.20;;;;;;5052059;28;20371;-70
2022/12/07 09:00:51;;;;;;;;;;;22.80;97.10;;;;;;5052257;28;19992;-68
2022/12/07 09:03:18;;;;;;;;;;;22.80;97.10;;;;;;5053368;28;19908;-69
2022/12/07 09:05:45;;;;;;;;;;;22.80;97.70;;;;;;5053402;28;20531;-69
2022/12/07 09:08:12;;;;;;;;;;;22.80;98.00;;;;;;5053156;28;19920;-68
2022/12/07 09:10:38;;;;;;;;;;;22.70;97.80;;;;;;5053928;28;19915;-69
2022/12/07 09:13:05;;;;;;;;;;;22.70;98.00;;;;;;5052908;28;19925;-65
2022/12/07 09:15:32;;;;;;;;;;;22.60;98.10;;;;;;5052791;28;19992;-65
2022/12/07 09:17:59;;;;;;;;;;;22.60;97.90;;;;;;5052598;28;19967;-65
2022/12/07 09:20:25;;;;;;;;;;;22.60;97.90;;;;;;5053305;28;19912;-65
2022/12/07 09:22:52;;;;;;;;;;;22.50;97.90;;;;;;5052559;28;20287;-65
2022/12/07 09:25:19;;;;;;;;;;;22.60;98.30;;;;;;5053561;28;19944;-65
2022/12/07 09:27:45;;;;;;;;;;;22.50;98.50;;;;;;5052605;28;19919;-65
2022/12/07 09:30:12;;;;;;;;;;;22.50;98.50;;;;;;5052720;28;19912;-64
2022/12/07 09:32:39;;;;;;;;;;;22.50;98.50;;;;;;5053590;28;19924;-66
2022/12/07 09:35:06;;;;;;;;;;;22.50;98.60;;;;;;5050497;28;20295;-64
2022/12/07 09:37:35;;;;;;;;;;;22.50;98.40;;;;;;5053333;28;19924;-65
2022/12/07 09:40:03;;;;;;;;;;;22.40;98.50;;;;;;5052132;28;19915;-65
2022/12/07 09:42:34;;;;;;;;;;;22.40;98.30;;;;;;5052322;28;19913;-64
2022/12/07 09:45:01;;;;;;;;;;;22.40;98.30;;;;;;5053264;28;20434;-64
2022/12/07 09:47:29;;;;;;;;;;;22.50;98.30;;;;;;5052408;28;20283;-63
2022/12/07 09:50:00;;;;;;;;;;;22.50;98.30;;;;;;5053204;28;19913;-63
2022/12/07 09:52:28;;;;;;;;;;;22.50;98.60;;;;;;5051885;28;20061;-63
2022/12/07 09:54:55;;;;;;;;;;;22.40;98.60;;;;;;5052946;28;19948;-63
2022/12/07 09:57:34;;;;;;;;;;;22.40;98.70;;;;;;5052094;28;20000;-64
2022/12/07 10:00:04;;;;;;;;;;;22.40;98.80;;;;;;5052164;28;19961;-64
2022/12/07 10:02:44;;;;;;;;;;;22.30;98.70;;;;;;5052760;28;20000;-63
2022/12/07 10:05:16;;;;;;;;;;;22.30;99.00;;;;;;5051977;28;19912;-64
2022/12/07 10:07:42;;;;;;;;;;;22.30;99.20;;;;;;5051418;28;20275;-65
2022/12/07 10:10:23;;;;;;;;;;;22.30;99.30;;;;;;5052552;28;19963;-67
2022/12/07 10:12:57;;;;;;;;;;;22.30;99.50;;;;;;5052633;28;19944;-69
2022/12/07 10:15:24;;;;;;;;;;;22.30;99.90;;;;;;5045202;28;20007;-64
2022/12/07 10:17:51;;;;;;;;;;;22.20;99.50;;;;;;5043522;28;19944;-64
2022/12/07 10:20:18;;;;;;;;;;;22.20;99.70;;;;;;5043891;28;19920;-66
2022/12/07 10:22:58;;;;;;;;;;;22.20;99.70;;;;;;5043530;28;20341;-68
2022/12/07 10:25:30;;;;;;;;;;;22.20;99.90;;;;;;5044603;28;19920;-65
2022/12/07 10:28:09;;;;;;;;;;;22.20;99.80;;;;;;5044016;28;20003;-65
2022/12/07 10:30:49;;;;;;;;;;;22.10;99.80;;;;;;5044090;28;20630;-64
2022/12/07 10:33:31;;;;;;;;;;;22.10;99.30;;;;;;5043827;28;19933;-63
2022/12/07 10:35:58;;;;;;;;;;;22.10;99.60;;;;;;5043224;28;19983;-63
2022/12/07 10:38:31;;;;;;;;;;;22.10;99.80;;;;;;5043918;28;19955;-65
2022/12/07 10:41:07;;;;;;;;;;;22.10;99.60;;;;;;5042974;28;19924;-67
2022/12/07 10:43:34;;;;;;;;;;;22.10;99.90;;;;;;5043740;28;19978;-65
2022/12/07 10:46:07;;;;;;;;;;;22.10;99.70;;;;;;5043279;28;20356;-65
2022/12/07 10:48:56;;;;;;;;;;;22.10;99.90;;;;;;5043938;28;20401;-65
2022/12/07 10:51:38;;;;;;;;;;;22.10;99.70;;;;;;5042625;28;19917;-65
2022/12/07 10:54:21;;;;;;;;;;;22.10;99.20;;;;;;5043836;28;19967;-66
2022/12/07 10:56:54;;;;;;;;;;;22.10;99.50;;;;;;5042440;28;19934;-65
2022/12/07 10:59:58;;;;;;;;;;;22.10;99.30;;;;;;5044115;28;19999;-66
2022/12/07 11:02:51;;;;;;;;;;;22.10;99.60;;;;;;4958066;28;20541;-68
2022/12/07 11:05:24;;;;;;;;;;;22.00;99.80;;;;;;4962167;28;19993;-65
2022/12/07 11:07:57;;;;;;;;;;;22.00;99.80;;;;;;5013870;28;19917;-66
2022/12/07 11:10:39;;;;;;;;;;;22.00;99.60;;;;;;5024234;28;20367;-65
2022/12/07 11:13:06;;;;;;;;;;;22.00;99.90;;;;;;5029779;28;19935;-66
2022/12/07 11:15:51;;;;;;;;;;;22.00;99.90;;;;;;5046240;28;19976;-63
2022/12/07 11:18:35;;;;;;;;;;;22.00;99.90;;;;;;5047909;28;20008;-66
2022/12/07 11:21:08;;;;;;;;;;;21.90;99.90;;;;;;5045357;28;19917;-66
2022/12/07 11:23:41;;;;;;;;;;;21.90;99.90;;;;;;5053597;28;19966;-66
2022/12/07 11:26:26;;;;;;;;;;;21.90;99.70;;;;;;5048211;28;19917;-66
2022/12/07 11:29:05;;;;;;;;;;;21.90;99.70;;;;;;5040800;28;19923;-67
2022/12/07 11:31:32;;;;;;;;;;;21.90;99.40;;;;;;5047923;28;20332;-66
2022/12/07 11:34:11;;;;;;;;;;;21.90;99.80;;;;;;5046434;28;19955;-66
2022/12/07 11:36:43;;;;;;;;;;;21.90;99.90;;;;;;5047374;28;19947;-65
2022/12/07 11:39:30;;;;;;;;;;;21.90;99.90;;;;;;5045983;28;19916;-65
2022/12/07 11:42:19;;;;;;;;;;;21.90;99.90;;;;;;5046920;28;19913;-66
2022/12/07 11:44:51;;;;;;;;;;;21.80;99.90;;;;;;5046529;28;19927;-66
2022/12/07 11:47:41;;;;;;;;;;;21.90;99.90;;;;;;5046945;28;19920;-66
2022/12/07 11:50:07;;;;;;;;;;;21.80;99.70;;;;;;5011570;28;20055;-65
2022/12/07 11:52:44;;;;;;;;;;;21.90;99.90;;;;;;5031356;28;19925;-66
2022/12/07 11:55:25;;;;;;;;;;;21.90;99.70;;;;;;5046852;28;19913;-65
2022/12/07 11:57:56;;;;;;;;;;;21.80;99.70;;;;;;5047587;28;19924;-69
2022/12/07 12:00:23;;;;;;;;;;;21.90;99.90;;;;;;5046045;28;19916;-66
2022/12/07 12:02:57;;;;;;;;;;;21.90;99.90;;;;;;5047595;28;20574;-66
2022/12/07 12:05:25;;;;;;;;;;;21.80;99.90;;;;;;5044966;28;19912;-66
2022/12/07 12:07:56;;;;;;;;;;;21.80;99.90;;;;;;5045834;28;19920;-66
2022/12/07 12:10:51;;;;;;;;;;;21.80;99.90;;;;;;5048677;28;19913;-67
2022/12/07 12:13:18;;;;;;;;;;;21.80;99.90;;;;;;5028628;28;19931;-66
2022/12/07 12:15:45;;;;;;;;;;;21.70;99.90;;;;;;5038704;28;19920;-66
2022/12/07 12:18:14;;;;;;;;;;;21.70;99.90;;;;;;5060713;28;20374;-66
2022/12/07 12:20:41;;;;;;;;;;;21.70;99.90;;;;;;5066524;28;19928;-66
2022/12/07 12:23:12;;;;;;;;;;;21.70;99.90;;;;;;5065488;28;19913;-70
2022/12/07 12:25:42;;;;;;;;;;;21.70;99.90;;;;;;5058947;28;20257;-65
2022/12/07 12:28:20;;;;;;;;;;;21.60;99.90;;;;;;5055127;28;20002;-65
2022/12/07 12:31:04;;;;;;;;;;;21.60;99.90;;;;;;5055800;28;19971;-68
2022/12/07 12:33:32;;;;;;;;;;;21.60;99.90;;;;;;5054747;28;19928;-66
2022/12/07 12:36:16;;;;;;;;;;;21.50;99.90;;;;;;5055135;28;19908;-66
2022/12/07 12:38:49;;;;;;;;;;;21.50;99.90;;;;;;5035820;28;20386;-65
2022/12/07 12:41:34;;;;;;;;;;;21.50;99.90;;;;;;5039646;28;19913;-64
2022/12/07 12:44:00;;;;;;;;;;;21.50;99.90;;;;;;5056436;28;19908;-69
2022/12/07 12:46:37;;;;;;;;;;;21.50;99.90;;;;;;5054131;28;19921;-70
2022/12/07 12:49:19;;;;;;;;;;;21.50;99.90;;;;;;5055093;28;19955;-70
2022/12/07 12:51:49;;;;;;;;;;;21.40;99.90;;;;;;5053877;28;19913;-69
2022/12/07 12:54:21;;;;;;;;;;;21.40;99.90;;;;;;5054831;28;19920;-68
2022/12/07 12:56:51;;;;;;;;;;;21.30;99.90;;;;;;5054155;28;19963;-66
2022/12/07 12:59:43;;;;;;;;;;;21.30;99.90;;;;;;5055145;28;20263;-68
2022/12/07 13:02:22;;;;;;;;;;;21.30;99.90;;;;;;5055470;28;19919;-69
2022/12/07 13:04:51;;;;;;;;;;;21.30;99.90;;;;;;5060838;28;19913;-70
2022/12/07 13:07:37;;;;;;;;;;;21.30;99.90;;;;;;5061421;28;20011;-69
2022/12/07 13:10:04;;;;;;;;;;;21.30;99.90;;;;;;5059231;28;19951;-69
2022/12/07 13:12:32;;;;;;;;;;;21.30;99.90;;;;;;5060543;28;19955;-67
2022/12/07 13:14:59;;;;;;;;;;;21.30;99.90;;;;;;5055740;28;19912;-70
2022/12/07 13:17:32;;;;;;;;;;;21.30;99.90;;;;;;5054244;28;19913;-69
2022/12/07 13:19:59;;;;;;;;;;;21.30;99.90;;;;;;5054575;28;19909;-69
2022/12/07 13:22:28;;;;;;;;;;;21.30;99.90;;;;;;5054263;28;20000;-69
2022/12/07 13:24:56;;;;;;;;;;;21.30;99.90;;;;;;5055290;28;19917;-69
2022/12/07 13:27:25;;;;;;;;;;;21.30;99.90;;;;;;5040956;28;19917;-70
2022/12/07 13:29:52;;;;;;;;;;;21.20;99.90;;;;;;5034167;28;20379;-69
2022/12/07 13:32:26;;;;;;;;;;;21.20;99.90;;;;;;5045073;28;20019;-70
2022/12/07 13:34:52;;;;;;;;;;;21.20;99.90;;;;;;5053508;28;19909;-69
2022/12/07 13:37:38;;;;;;;;;;;21.20;99.90;;;;;;5052430;28;19966;-68
2022/12/07 13:40:19;;;;;;;;;;;21.20;99.90;;;;;;5053056;28;19917;-69
2022/12/07 13:42:45;;;;;;;;;;;21.20;99.90;;;;;;5053407;28;19995;-68
2022/12/07 13:45:47;;;;;;;;;;;21.20;99.90;;;;;;5053313;28;19920;-65
2022/12/07 13:48:14;;;;;;;;;;;21.20;99.90;;;;;;5034289;28;19913;-70
2022/12/07 13:50:41;;;;;;;;;;;21.10;99.90;;;;;;5035880;28;19916;-65
2022/12/07 13:53:12;;;;;;;;;;;21.10;99.90;;;;;;5052320;28;19921;-68
2022/12/07 13:55:44;;;;;;;;;;;21.00;99.90;;;;;;5053424;28;19908;-68
2022/12/07 13:58:11;;;;;;;;;;;21.00;99.90;;;;;;5052631;28;20379;-68
2022/12/07 14:00:40;;;;;;;;;;;21.00;99.90;;;;;;5053890;28;19941;-68
2022/12/07 14:03:12;;;;;;;;;;;21.00;99.90;;;;;;5053705;28;20275;-68
2022/12/07 14:05:40;;;;;;;;;;;20.90;99.90;;;;;;5064678;28;19908;-67
2022/12/07 14:08:07;;;;;;;;;;;20.90;99.90;;;;;;5052582;28;19913;-68
2022/12/07 14:10:34;;;;;;;;;;;20.90;99.90;;;;;;5052589;28;19917;-65
2022/12/07 14:13:01;;;;;;;;;;;20.80;99.90;;;;;;5053248;28;19917;-65
2022/12/07 14:15:30;;;;;;;;;;;20.80;99.90;;;;;;5051709;28;19983;-64
2022/12/07 14:17:57;;;;;;;;;;;20.80;99.90;;;;;;5053193;28;20336;-64
2022/12/07 14:20:36;;;;;;;;;;;20.70;99.90;;;;;;5052336;28;19913;-67
2022/12/07 14:23:08;;;;;;;;;;;20.70;99.90;;;;;;5052428;28;19913;-65
2022/12/07 14:25:52;;;;;;;;;;;20.70;99.90;;;;;;5053704;28;19909;-65
2022/12/07 14:28:35;;;;;;;;;;;20.70;99.90;;;;;;5053396;28;20016;-65
2022/12/07 14:31:03;;;;;;;;;;;20.70;99.90;;;;;;5053686;28;20344;-64
2022/12/07 14:33:30;;;;;;;;;;;20.70;99.90;;;;;;5054008;28;20355;-65
2022/12/07 14:35:57;;;;;;;;;;;20.70;99.90;;;;;;5059239;28;19964;-67
2022/12/07 14:38:24;;;;;;;;;;;20.70;99.90;;;;;;5066324;28;20568;-68
2022/12/07 14:40:52;;;;;;;;;;;20.70;99.90;;;;;;5066615;28;20385;-67
2022/12/07 14:43:20;;;;;;;;;;;20.70;99.90;;;;;;5064792;28;19909;-65